KFUL/FUL METAR and TAF weather

Enter ICAO airport designator
Station Type Date Time Source
KFUL METAR 2020/01/23 05:53 UTC NOAA

KFUL 230553Z AUTO 00000KT 10SM CLR 11/09 A3015 RMK AO2 SLP209 T01110089 10172 20111 53008


Station Type Date Time Source
KFUL Decoded METAR 2020/01/23 05:53 UTC NOAA

FULLERTON MUNICIPAL AIRPORT , CA, United States (KFUL) 33-52N 117-59W 35M
Jan 23, 2020 - 12:53 AM EST / 2020.01.23 0553 UTC
Wind: Calm:0
Visibility: 10 mile(s):0
Sky conditions: clear
Temperature: 52.0 F (11.1 C)
Dew Point: 48.0 F (8.9 C)
Relative Humidity: 86%
Pressure (altimeter): 30.15 in. Hg (1020 hPa)
Pressure tendency: 0.02 inches (0.8 hPa) higher than three hours ago
ob: KFUL 230553Z AUTO 00000KT 10SM CLR 11/09 A3015 RMK AO2 SLP209 T01110089 10172 20111 53008
cycle: 6

Station Type Date Time Source
KFUL TAF UTC NOAA

Error!

Example: see airport list